createdAt,value
2018-06-05T00:00:42.421Z,0
2018-06-05T00:01:51.558Z,0
2018-06-05T00:03:00.895Z,0
2018-06-05T00:04:09.758Z,0
2018-06-05T00:05:18.904Z,0
2018-06-05T00:06:27.768Z,0
2018-06-05T00:07:36.631Z,0
2018-06-05T00:08:45.643Z,0
2018-06-05T00:09:54.556Z,0
2018-06-05T00:11:03.373Z,0
2018-06-05T00:12:12.508Z,0
2018-06-05T00:13:21.649Z,0
2018-06-05T00:14:30.861Z,0
2018-06-05T00:15:39.724Z,0
2018-06-05T00:16:48.866Z,0
2018-06-05T00:17:58.005Z,0
2018-06-05T00:19:06.868Z,0
2018-06-05T00:20:15.881Z,0
2018-06-05T00:21:25.022Z,0
2018-06-05T00:22:34.432Z,0
2018-06-05T00:23:43.577Z,0
2018-06-05T00:24:52.441Z,0
2018-06-05T00:26:01.357Z,0
2018-06-05T00:27:10.222Z,0
2018-06-05T00:28:19.084Z,0
2018-06-05T00:29:27.946Z,0
2018-06-05T00:30:36.808Z,0
2018-06-05T00:31:45.670Z,0
2018-06-05T00:32:54.532Z,0
2018-06-05T00:34:03.395Z,0
2018-06-05T00:35:12.260Z,0
2018-06-05T00:36:21.123Z,0
2018-06-05T00:37:30.310Z,0
2018-06-05T00:38:39.444Z,0
2018-06-05T00:39:48.306Z,0
2018-06-05T00:40:57.441Z,0
2018-06-05T00:42:06.585Z,0
2018-06-05T00:43:15.545Z,0
2018-06-05T00:44:24.406Z,0
2018-06-05T00:45:33.268Z,0
2018-06-05T00:46:42.135Z,0
2018-06-05T00:47:51.556Z,0
2018-06-05T00:49:00.469Z,0
2018-06-05T00:50:09.329Z,0
2018-06-05T00:51:18.466Z,0
2018-06-05T00:52:27.334Z,0
2018-06-05T00:53:36.191Z,0
2018-06-05T00:54:45.151Z,0
2018-06-05T00:55:54.292Z,0
2018-06-05T00:57:03.707Z,0
2018-06-05T00:58:12.569Z,0
2018-06-05T00:59:21.708Z,0
2018-06-05T01:00:30.668Z,0
2018-06-05T01:01:39.526Z,0
2018-06-05T01:02:48.391Z,0
2018-06-05T01:03:57.252Z,0
2018-06-05T01:05:06.117Z,0
2018-06-05T01:06:14.979Z,0
2018-06-05T01:07:23.841Z,0
2018-06-05T01:08:32.704Z,0
2018-06-05T01:09:41.566Z,0
2018-06-05T01:10:50.707Z,0
2018-06-05T01:11:59.568Z,0
2018-06-05T01:13:08.429Z,0
2018-06-05T01:14:17.293Z,0
2018-06-05T01:15:26.431Z,0
2018-06-05T01:16:35.297Z,0
2018-06-05T01:17:44.207Z,0
2018-06-05T01:18:53.073Z,0
2018-06-05T01:20:01.931Z,0
2018-06-05T01:21:10.794Z,0
2018-06-05T01:22:19.656Z,0
2018-06-05T01:23:28.797Z,0
2018-06-05T01:24:37.938Z,0
2018-06-05T01:25:46.800Z,0
2018-06-05T01:26:55.663Z,0
2018-06-05T01:28:04.531Z,0
2018-06-05T01:29:13.442Z,0
2018-06-05T01:30:22.580Z,0
2018-06-05T01:31:31.447Z,0
2018-06-05T01:32:40.583Z,0
2018-06-05T01:33:49.447Z,0
2018-06-05T01:34:58.937Z,0
2018-06-05T01:36:07.795Z,0
2018-06-05T01:37:16.656Z,0
2018-06-05T01:38:25.517Z,0
2018-06-05T01:39:34.378Z,0
2018-06-05T01:40:43.242Z,0
2018-06-05T01:41:52.101Z,0
2018-06-05T01:43:00.962Z,0
2018-06-05T01:44:09.824Z,0
2018-06-05T01:45:18.686Z,0
2018-06-05T01:46:27.698Z,0
2018-06-05T01:47:36.559Z,0
2018-06-05T01:48:45.698Z,0
2018-06-05T01:49:54.847Z,0
2018-06-05T01:51:03.981Z,0
2018-06-05T01:52:12.943Z,0
2018-06-05T01:53:21.858Z,0
2018-06-05T01:54:31.003Z,0
2018-06-05T01:55:39.866Z,0
2018-06-05T01:56:48.725Z,0
2018-06-05T01:57:57.913Z,0
2018-06-05T01:59:06.776Z,0
2018-06-05T02:00:15.637Z,0
2018-06-05T02:01:24.501Z,0
2018-06-05T02:02:33.369Z,0
2018-06-05T02:03:42.224Z,0
2018-06-05T02:04:51.091Z,0
2018-06-05T02:05:59.949Z,0
2018-06-05T02:07:08.815Z,0
2018-06-05T02:08:17.679Z,0
2018-06-05T02:09:26.643Z,0
2018-06-05T02:10:35.780Z,0
2018-06-05T02:11:44.644Z,0
2018-06-05T02:12:53.785Z,0
2018-06-05T02:14:02.648Z,0
2018-06-05T02:15:12.244Z,0
2018-06-05T02:16:21.105Z,0
2018-06-05T02:17:29.967Z,0
2018-06-05T02:18:38.829Z,0
2018-06-05T02:19:47.980Z,0
2018-06-05T02:20:56.838Z,0
2018-06-05T02:22:05.706Z,0
2018-06-05T02:23:14.842Z,0
2018-06-05T02:24:23.704Z,0
2018-06-05T02:25:32.569Z,0
2018-06-05T02:26:42.333Z,0
2018-06-05T02:27:51.198Z,0
2018-06-05T02:29:00.061Z,0
2018-06-05T02:30:09.206Z,0
2018-06-05T02:31:18.365Z,0
2018-06-05T02:32:27.259Z,0
2018-06-05T02:33:36.693Z,0
2018-06-05T02:34:45.558Z,0
2018-06-05T02:35:54.697Z,0
2018-06-05T02:37:03.837Z,0
2018-06-05T02:38:12.954Z,0
2018-06-05T02:39:21.816Z,0
2018-06-05T02:40:30.686Z,0
2018-06-05T02:41:39.557Z,0
2018-06-05T02:42:48.703Z,0
2018-06-05T02:43:57.845Z,0
2018-06-05T02:45:06.995Z,0
2018-06-05T02:46:15.865Z,0
2018-06-05T02:47:25.284Z,0
2018-06-05T02:48:34.715Z,0
2018-06-05T02:49:43.856Z,0
2018-06-05T02:50:53.291Z,0
2018-06-05T02:52:02.705Z,0
2018-06-05T02:53:11.571Z,0
2018-06-05T02:54:21.383Z,0
2018-06-05T02:55:30.611Z,0
2018-06-05T02:56:40.030Z,0
2018-06-05T02:57:49.727Z,0
2018-06-05T02:58:59.144Z,0
2018-06-05T03:00:08.011Z,0
2018-06-05T03:01:17.028Z,0
2018-06-05T03:02:25.895Z,0
2018-06-05T03:03:35.031Z,0
2018-06-05T03:04:43.897Z,0
2018-06-05T03:05:53.038Z,0
2018-06-05T03:07:02.556Z,0
2018-06-05T03:08:11.696Z,0
2018-06-05T03:09:20.840Z,0
2018-06-05T03:10:29.702Z,0
2018-06-05T03:11:38.565Z,0
2018-06-05T03:12:47.867Z,0
2018-06-05T03:13:56.730Z,5
2018-06-05T03:15:05.873Z,5
2018-06-05T03:16:15.012Z,5
2018-06-05T03:17:23.875Z,5
2018-06-05T03:18:32.887Z,5
2018-06-05T03:19:41.747Z,5
2018-06-05T03:20:50.611Z,5
2018-06-05T03:21:59.476Z,5
2018-06-05T03:23:08.640Z,5
2018-06-05T03:24:17.536Z,5
2018-06-05T03:25:26.395Z,5
2018-06-05T03:26:35.256Z,5
2018-06-05T03:27:44.399Z,5
2018-06-05T03:28:53.258Z,5
2018-06-05T03:30:02.497Z,5
2018-06-05T03:31:11.633Z,5
2018-06-05T03:32:20.770Z,5
2018-06-05T03:33:29.635Z,5
2018-06-05T03:34:38.769Z,5
2018-06-05T03:35:47.682Z,10
2018-06-05T03:36:56.544Z,10
2018-06-05T03:38:05.406Z,10
2018-06-05T03:39:14.551Z,10
2018-06-05T03:40:23.687Z,10
2018-06-05T03:41:32.549Z,10
2018-06-05T03:42:41.411Z,15
2018-06-05T03:43:50.274Z,15
2018-06-05T03:44:59.409Z,15
2018-06-05T03:46:08.268Z,20
2018-06-05T03:47:17.228Z,20
2018-06-05T03:48:26.373Z,20
2018-06-05T03:49:35.507Z,20
2018-06-05T03:50:44.367Z,25
2018-06-05T03:51:53.226Z,25
2018-06-05T03:53:02.439Z,25
2018-06-05T03:54:11.301Z,30
2018-06-05T03:55:20.724Z,30
2018-06-05T03:56:29.636Z,30
2018-06-05T03:57:38.735Z,30
2018-06-05T03:58:47.848Z,30
2018-06-05T03:59:56.990Z,30
2018-06-05T04:01:05.851Z,35
2018-06-05T04:02:14.989Z,35
2018-06-05T04:03:23.850Z,40
2018-06-05T04:04:33.146Z,40
2018-06-05T04:05:42.006Z,40
2018-06-05T04:06:50.868Z,45
2018-06-05T04:07:59.732Z,45
2018-06-05T04:09:08.596Z,45
2018-06-05T04:10:17.740Z,45
2018-06-05T04:11:26.598Z,45
2018-06-05T04:12:35.458Z,45
2018-06-05T04:13:44.321Z,50
2018-06-05T04:14:53.184Z,50
2018-06-05T04:16:02.044Z,55
2018-06-05T04:17:10.906Z,55
2018-06-05T04:18:19.778Z,55
2018-06-05T04:19:28.907Z,55
2018-06-05T04:20:37.768Z,60
2018-06-05T04:21:46.782Z,65
2018-06-05T04:22:55.922Z,70
2018-06-05T04:24:04.786Z,70
2018-06-05T04:25:13.647Z,70
2018-06-05T04:26:22.510Z,70
2018-06-05T04:27:32.313Z,70
2018-06-05T04:28:41.151Z,70
2018-06-05T04:29:50.015Z,70
2018-06-05T04:30:58.877Z,75
2018-06-05T04:32:07.739Z,75
2018-06-05T04:33:16.602Z,75
2018-06-05T04:34:25.465Z,75
2018-06-05T04:35:34.330Z,75
2018-06-05T04:36:43.467Z,75
2018-06-05T04:37:52.334Z,75
2018-06-05T04:39:01.248Z,75
2018-06-05T04:40:10.112Z,80
2018-06-05T04:41:18.976Z,80
2018-06-05T04:42:28.404Z,80
2018-06-05T04:43:37.264Z,80
2018-06-05T04:44:46.655Z,85
2018-06-05T04:45:55.519Z,85
2018-06-05T04:47:04.380Z,80
2018-06-05T04:48:13.241Z,80
2018-06-05T04:49:22.103Z,85
2018-06-05T04:50:31.868Z,90
2018-06-05T04:51:40.729Z,90
2018-06-05T04:52:49.588Z,90
2018-06-05T04:53:58.725Z,90
2018-06-05T04:55:07.878Z,90
2018-06-05T04:56:17.119Z,85
2018-06-05T04:57:25.983Z,85
2018-06-05T04:58:34.843Z,85
2018-06-05T04:59:43.703Z,85
2018-06-05T05:00:52.565Z,90
2018-06-05T05:02:01.475Z,90
2018-06-05T05:03:10.347Z,90
2018-06-05T05:04:19.203Z,95
2018-06-05T05:05:28.065Z,95
2018-06-05T05:06:36.925Z,100
2018-06-05T05:07:45.788Z,100
2018-06-05T05:08:54.649Z,95
2018-06-05T05:10:03.509Z,95
2018-06-05T05:11:12.652Z,95
2018-06-05T05:12:22.067Z,100
2018-06-05T05:13:31.027Z,105
2018-06-05T05:14:39.894Z,105
2018-06-05T05:15:49.026Z,105
2018-06-05T05:16:57.888Z,105
2018-06-05T05:18:07.027Z,110
2018-06-05T05:19:16.239Z,120
2018-06-05T05:20:25.376Z,125
2018-06-05T05:21:34.239Z,130
2018-06-05T05:22:43.100Z,130
2018-06-05T05:23:51.961Z,135
2018-06-05T05:25:00.823Z,135
2018-06-05T05:26:09.691Z,125
2018-06-05T05:27:18.828Z,120
2018-06-05T05:28:27.692Z,115
2018-06-05T05:29:36.553Z,115
2018-06-05T05:30:45.993Z,115
2018-06-05T05:31:54.829Z,120
2018-06-05T05:33:03.694Z,120
2018-06-05T05:34:12.557Z,120
2018-06-05T05:35:21.697Z,125
2018-06-05T05:36:30.564Z,125
2018-06-05T05:37:39.424Z,130
2018-06-05T05:38:48.289Z,135
2018-06-05T05:39:57.153Z,140
2018-06-05T05:41:06.017Z,145
2018-06-05T05:42:14.877Z,145
2018-06-05T05:43:23.739Z,150
2018-06-05T05:44:32.604Z,160
2018-06-05T05:45:41.473Z,165
2018-06-05T05:46:50.334Z,165
2018-06-05T05:47:59.196Z,165
2018-06-05T05:49:08.341Z,165
2018-06-05T05:50:17.201Z,170
2018-06-05T05:51:26.067Z,175
2018-06-05T05:52:35.204Z,175
2018-06-05T05:53:44.319Z,180
2018-06-05T05:54:53.228Z,180
2018-06-05T05:56:02.570Z,185
2018-06-05T05:57:11.445Z,195
2018-06-05T05:58:20.307Z,210
2018-06-05T05:59:29.170Z,220
2018-06-05T06:00:38.029Z,225
2018-06-05T06:01:47.218Z,235
2018-06-05T06:02:56.080Z,240
2018-06-05T06:04:04.944Z,240
2018-06-05T06:05:14.082Z,230
2018-06-05T06:06:22.947Z,235
2018-06-05T06:07:31.910Z,245
2018-06-05T06:08:40.769Z,245
2018-06-05T06:09:50.225Z,250
2018-06-05T06:10:59.107Z,250
2018-06-05T06:12:08.335Z,255
2018-06-05T06:13:18.070Z,265
2018-06-05T06:14:27.317Z,260
2018-06-05T06:15:37.146Z,265
2018-06-05T06:16:46.076Z,270
2018-06-05T06:17:54.938Z,280
2018-06-05T06:19:04.083Z,290
2018-06-05T06:20:13.224Z,290
2018-06-05T06:21:22.087Z,290
2018-06-05T06:22:30.945Z,295
2018-06-05T06:23:40.088Z,300
2018-06-05T06:24:49.226Z,305
2018-06-05T06:25:58.144Z,310
2018-06-05T06:27:07.747Z,305
2018-06-05T06:28:16.615Z,305
2018-06-05T06:29:25.479Z,310
2018-06-05T06:30:34.622Z,310
2018-06-05T06:31:43.488Z,305
2018-06-05T06:32:52.352Z,305
2018-06-05T06:34:01.267Z,305
2018-06-05T06:35:10.131Z,310
2018-06-05T06:36:18.997Z,315
2018-06-05T06:37:28.146Z,325
2018-06-05T06:38:37.102Z,335
2018-06-05T06:39:45.924Z,340
2018-06-05T06:40:55.063Z,350
2018-06-05T06:42:04.491Z,355
2018-06-05T06:43:13.354Z,360
2018-06-05T06:44:22.466Z,370
2018-06-05T06:45:31.604Z,380
2018-06-05T06:46:40.464Z,380
2018-06-05T06:47:49.657Z,375
2018-06-05T06:48:58.982Z,375
2018-06-05T06:50:07.906Z,380
2018-06-05T06:51:16.771Z,390
2018-06-05T06:52:25.633Z,390
2018-06-05T06:53:34.496Z,395
2018-06-05T06:54:43.660Z,385
2018-06-05T06:55:53.058Z,380
2018-06-05T06:57:02.484Z,375
2018-06-05T06:58:11.349Z,380
2018-06-05T06:59:20.216Z,380
2018-06-05T07:00:29.081Z,380
2018-06-05T07:01:38.582Z,380
2018-06-05T07:02:47.719Z,385
2018-06-05T07:03:56.584Z,385
2018-06-05T07:05:05.453Z,380
2018-06-05T07:06:14.313Z,370
2018-06-05T07:07:23.456Z,370
2018-06-05T07:08:32.320Z,380
2018-06-05T07:09:41.184Z,395
2018-06-05T07:10:50.047Z,390
2018-06-05T07:11:58.910Z,390
2018-06-05T07:13:07.777Z,400
2018-06-05T07:14:16.914Z,410
2018-06-05T07:15:25.780Z,420
2018-06-05T07:16:34.919Z,425
2018-06-05T07:17:43.782Z,425
2018-06-05T07:18:52.794Z,425
2018-06-05T07:20:01.658Z,425
2018-06-05T07:21:10.523Z,425
2018-06-05T07:22:19.383Z,420
2018-06-05T07:23:28.247Z,425
2018-06-05T07:24:37.111Z,430
2018-06-05T07:25:45.974Z,435
2018-06-05T07:26:54.836Z,440
2018-06-05T07:28:03.700Z,450
2018-06-05T07:29:12.562Z,460
2018-06-05T07:30:22.371Z,470
2018-06-05T07:31:31.508Z,470
2018-06-05T07:32:40.374Z,475
2018-06-05T07:33:49.522Z,480
2018-06-05T07:34:58.385Z,485
2018-06-05T07:36:07.604Z,485
2018-06-05T07:37:16.470Z,480
2018-06-05T07:38:25.337Z,485
2018-06-05T07:39:34.203Z,495
2018-06-05T07:40:43.352Z,495
2018-06-05T07:41:52.646Z,500
2018-06-05T07:43:01.511Z,500
2018-06-05T07:44:10.373Z,490
2018-06-05T07:45:19.238Z,485
2018-06-05T07:46:28.104Z,490
2018-06-05T07:47:37.346Z,510
2018-06-05T07:48:46.213Z,520
2018-06-05T07:49:55.107Z,525
2018-06-05T07:51:04.532Z,530
2018-06-05T07:52:13.394Z,520
2018-06-05T07:53:22.356Z,515
2018-06-05T07:54:31.220Z,515
2018-06-05T07:55:40.361Z,515
2018-06-05T07:56:49.225Z,520
2018-06-05T07:57:58.088Z,530
2018-06-05T07:59:07.102Z,525
2018-06-05T08:00:15.971Z,510
2018-06-05T08:01:25.117Z,490
2018-06-05T08:02:34.260Z,465
2018-06-05T08:03:43.127Z,440
2018-06-05T08:04:52.342Z,425
2018-06-05T08:06:01.207Z,430
2018-06-05T08:07:10.072Z,450
2018-06-05T08:08:19.216Z,505
2018-06-05T08:09:28.081Z,515
2018-06-05T08:10:37.095Z,540
2018-06-05T08:11:46.251Z,540
2018-06-05T08:12:55.439Z,520
2018-06-05T08:14:04.304Z,485
2018-06-05T08:15:13.445Z,455
2018-06-05T08:16:22.507Z,430
2018-06-05T08:17:31.372Z,420
2018-06-05T08:18:40.515Z,415
2018-06-05T08:19:49.378Z,415
2018-06-05T08:20:58.244Z,425
2018-06-05T08:22:07.483Z,425
2018-06-05T08:23:16.632Z,445
2018-06-05T08:24:25.822Z,455
2018-06-05T08:25:34.672Z,460
2018-06-05T08:26:43.815Z,455
2018-06-05T08:27:53.101Z,430
2018-06-05T08:29:01.966Z,410
2018-06-05T08:30:10.833Z,415
2018-06-05T08:31:19.697Z,455
2018-06-05T08:32:28.560Z,510
2018-06-05T08:33:37.476Z,550
2018-06-05T08:34:46.339Z,565
2018-06-05T08:35:55.200Z,565
2018-06-05T08:37:04.064Z,560
2018-06-05T08:38:12.975Z,545
2018-06-05T08:39:22.139Z,540
2018-06-05T08:40:31.006Z,520
2018-06-05T08:41:39.871Z,505
2018-06-05T08:42:48.736Z,480
2018-06-05T08:43:57.603Z,455
2018-06-05T08:45:06.516Z,435
2018-06-05T08:46:15.659Z,415
2018-06-05T08:47:24.522Z,390
2018-06-05T08:48:33.662Z,380
2018-06-05T08:49:42.525Z,390
2018-06-05T08:50:51.438Z,420
2018-06-05T08:52:00.303Z,455
2018-06-05T08:53:09.165Z,485
2018-06-05T08:54:18.740Z,515
2018-06-05T08:55:27.540Z,545
2018-06-05T08:56:36.449Z,595
2018-06-05T08:57:45.316Z,570
2018-06-05T08:58:54.465Z,555
2018-06-05T09:00:04.261Z,550
2018-06-05T09:01:13.126Z,550
2018-06-05T09:02:21.987Z,565
2018-06-05T09:03:30.850Z,545
2018-06-05T09:04:39.716Z,535
2018-06-05T09:05:48.581Z,530
2018-06-05T09:06:57.453Z,510
2018-06-05T09:08:06.690Z,500
2018-06-05T09:09:15.566Z,500
2018-06-05T09:10:24.987Z,480
2018-06-05T09:11:34.168Z,455
2018-06-05T09:12:43.056Z,440
2018-06-05T09:13:52.047Z,430
2018-06-05T09:15:00.910Z,430
2018-06-05T09:16:09.777Z,415
2018-06-05T09:17:18.644Z,395
2018-06-05T09:18:27.506Z,390
2018-06-05T09:19:36.420Z,390
2018-06-05T09:20:45.566Z,395
2018-06-05T09:21:54.430Z,435
2018-06-05T09:23:03.293Z,450
2018-06-05T09:24:12.161Z,475
2018-06-05T09:25:21.131Z,515
2018-06-05T09:26:30.001Z,540
2018-06-05T09:27:38.863Z,530
2018-06-05T09:28:47.732Z,500
2018-06-05T09:29:56.597Z,470
2018-06-05T09:31:05.612Z,430
2018-06-05T09:32:14.476Z,370
2018-06-05T09:33:23.340Z,340
2018-06-05T09:34:32.569Z,275
2018-06-05T09:35:41.706Z,265
2018-06-05T09:36:50.819Z,260
2018-06-05T09:37:59.683Z,260
2018-06-05T09:39:08.826Z,250
2018-06-05T09:40:17.690Z,280
2018-06-05T09:41:26.557Z,290
2018-06-05T09:42:35.669Z,290
2018-06-05T09:43:44.543Z,290
2018-06-05T09:44:53.409Z,295
2018-06-05T09:46:02.270Z,295
2018-06-05T09:47:11.140Z,305
2018-06-05T09:48:20.107Z,305
2018-06-05T09:49:28.967Z,360
2018-06-05T09:50:37.832Z,375
2018-06-05T09:51:46.696Z,365
2018-06-05T09:52:55.837Z,330
2018-06-05T09:54:04.753Z,330
2018-06-05T09:55:13.620Z,320
2018-06-05T09:56:22.486Z,345
2018-06-05T09:57:31.627Z,390
2018-06-05T09:58:41.060Z,405
2018-06-05T09:59:50.010Z,425
2018-06-05T10:00:59.155Z,420
2018-06-05T10:02:08.019Z,410
2018-06-05T10:03:16.883Z,380
2018-06-05T10:04:25.748Z,360
2018-06-05T10:05:34.714Z,335
2018-06-05T10:06:43.576Z,325
2018-06-05T10:07:52.726Z,320
2018-06-05T10:09:01.606Z,315
2018-06-05T10:10:10.458Z,310
2018-06-05T10:11:19.323Z,310
2018-06-05T10:12:28.465Z,310
2018-06-05T10:13:37.327Z,305
2018-06-05T10:14:46.191Z,285
2018-06-05T10:15:55.055Z,290
2018-06-05T10:17:04.261Z,280
2018-06-05T10:18:13.402Z,280
2018-06-05T10:19:22.268Z,280
2018-06-05T10:20:31.141Z,280
2018-06-05T10:21:40.282Z,280
2018-06-05T10:22:49.259Z,280
2018-06-05T10:23:58.133Z,275
2018-06-05T10:25:07.274Z,275
2018-06-05T10:26:16.417Z,275
2018-06-05T10:27:25.709Z,280
2018-06-05T10:28:34.674Z,285
2018-06-05T10:29:43.540Z,295
2018-06-05T10:30:52.406Z,290
2018-06-05T10:32:01.266Z,285
2018-06-05T10:33:10.131Z,285
2018-06-05T10:34:18.996Z,285
2018-06-05T10:35:27.861Z,280
2018-06-05T10:36:37.004Z,285
2018-06-05T10:37:45.871Z,285
2018-06-05T10:38:55.012Z,285
2018-06-05T10:40:04.025Z,290
2018-06-05T10:41:13.169Z,295
2018-06-05T10:42:22.032Z,295
2018-06-05T10:43:30.896Z,295
2018-06-05T10:44:39.763Z,300
2018-06-05T10:45:48.728Z,305
2018-06-05T10:46:57.591Z,315
2018-06-05T10:48:06.456Z,315
2018-06-05T10:49:15.322Z,315
2018-06-05T10:50:24.185Z,305
2018-06-05T10:51:33.050Z,300
2018-06-05T10:52:41.915Z,300
2018-06-05T10:53:51.113Z,305
2018-06-05T10:54:59.978Z,305
2018-06-05T10:56:08.841Z,305
2018-06-05T10:57:17.758Z,305
2018-06-05T10:58:26.903Z,310
2018-06-05T10:59:35.763Z,315
2018-06-05T11:00:44.629Z,310
2018-06-05T11:01:53.492Z,310
2018-06-05T11:03:02.507Z,315
2018-06-05T11:04:11.649Z,320
2018-06-05T11:05:20.794Z,315
2018-06-05T11:06:29.942Z,310
2018-06-05T11:07:38.806Z,315
2018-06-05T11:08:48.020Z,315
2018-06-05T11:09:56.896Z,310
2018-06-05T11:11:05.761Z,310
2018-06-05T11:12:14.627Z,310
2018-06-05T11:13:23.494Z,315
2018-06-05T11:14:32.741Z,315
2018-06-05T11:15:41.909Z,320
2018-06-05T11:16:51.051Z,320
2018-06-05T11:17:59.943Z,320
2018-06-05T11:19:09.088Z,325
2018-06-05T11:20:18.235Z,325
2018-06-05T11:21:27.098Z,330
2018-06-05T11:22:36.241Z,330
2018-06-05T11:23:45.761Z,335
2018-06-05T11:24:54.581Z,335
2018-06-05T11:26:03.452Z,335
2018-06-05T11:27:12.316Z,335
2018-06-05T11:28:21.182Z,335
2018-06-05T11:29:30.336Z,335
2018-06-05T11:30:39.203Z,335
2018-06-05T11:31:48.319Z,335
2018-06-05T11:32:57.737Z,340
2018-06-05T11:34:06.882Z,340
2018-06-05T11:35:16.030Z,345
2018-06-05T11:36:24.891Z,355
2018-06-05T11:37:34.635Z,350
2018-06-05T11:38:43.503Z,355
2018-06-05T11:39:52.649Z,355
2018-06-05T11:41:02.007Z,355
2018-06-05T11:42:11.151Z,355
2018-06-05T11:43:20.651Z,360
2018-06-05T11:44:29.514Z,370
2018-06-05T11:45:38.378Z,375
2018-06-05T11:46:47.591Z,385
2018-06-05T11:47:56.988Z,390
2018-06-05T11:49:06.229Z,405
2018-06-05T11:50:15.140Z,425
2018-06-05T11:51:24.028Z,465
2018-06-05T11:52:32.928Z,1550
2018-06-05T11:53:42.074Z,3190
2018-06-05T11:54:51.040Z,3000
2018-06-05T11:55:59.931Z,2940
2018-06-05T11:57:09.096Z,3050
2018-06-05T11:58:17.962Z,3025
2018-06-05T11:59:26.889Z,3075
2018-06-05T12:00:36.062Z,2965
2018-06-05T12:01:45.279Z,2835
2018-06-05T12:02:54.381Z,2690
2018-06-05T12:04:03.252Z,2670
2018-06-05T12:05:12.124Z,2645
2018-06-05T12:06:21.471Z,2850
2018-06-05T12:07:30.341Z,2875
2018-06-05T12:08:39.215Z,3035
2018-06-05T12:09:48.083Z,3160
2018-06-05T12:10:56.959Z,3055
2018-06-05T12:12:05.981Z,3075
2018-06-05T12:13:15.127Z,3105
2018-06-05T12:14:23.999Z,2925
2018-06-05T12:15:32.892Z,2805
2018-06-05T12:16:41.742Z,2740
2018-06-05T12:17:50.777Z,2955
2018-06-05T12:18:59.587Z,3245
2018-06-05T12:20:08.462Z,3420
2018-06-05T12:21:17.378Z,3245
2018-06-05T12:22:26.782Z,3540
2018-06-05T12:23:35.826Z,3535
2018-06-05T12:24:44.716Z,3160
2018-06-05T12:25:53.954Z,3295
2018-06-05T12:27:02.828Z,3520
2018-06-05T12:28:11.704Z,3440
2018-06-05T12:29:20.825Z,3540
2018-06-05T12:30:29.698Z,3660
2018-06-05T12:31:38.571Z,3525
2018-06-05T12:32:47.445Z,3505
2018-06-05T12:33:56.321Z,3310
2018-06-05T12:35:05.196Z,3645
2018-06-05T12:36:14.070Z,3710
2018-06-05T12:37:23.224Z,3605
2018-06-05T12:38:32.101Z,3340
2018-06-05T12:39:40.975Z,3220
2018-06-05T12:40:50.210Z,3075
2018-06-05T12:41:59.082Z,2570
2018-06-05T12:43:07.956Z,2830
2018-06-05T12:44:16.831Z,2915
2018-06-05T12:45:25.707Z,3130
2018-06-05T12:46:34.638Z,3150
2018-06-05T12:47:43.512Z,3280
2018-06-05T12:48:52.392Z,3360
2018-06-05T12:50:01.542Z,3185
2018-06-05T12:51:10.418Z,3415
2018-06-05T12:52:19.393Z,3550
2018-06-05T12:53:28.270Z,3450
2018-06-05T12:54:37.147Z,3260
2018-06-05T12:55:46.024Z,2925
2018-06-05T12:56:54.900Z,3380
2018-06-05T12:58:04.281Z,3220
2018-06-05T12:59:13.066Z,3395
2018-06-05T13:00:21.949Z,3435
2018-06-05T13:01:31.212Z,3570
2018-06-05T13:02:40.377Z,3620
2018-06-05T13:03:49.718Z,3330
2018-06-05T13:04:58.603Z,3445
2018-06-05T13:06:07.757Z,3300
2018-06-05T13:07:16.634Z,3845
2018-06-05T13:08:25.512Z,3620
2018-06-05T13:09:34.391Z,3510
2018-06-05T13:10:43.281Z,3235
2018-06-05T13:11:52.825Z,3330
2018-06-05T13:13:01.961Z,3680
2018-06-05T13:14:11.117Z,3480
2018-06-05T13:15:20.142Z,3780
2018-06-05T13:16:29.580Z,3845
2018-06-05T13:17:38.857Z,3725
2018-06-05T13:18:48.063Z,3490
2018-06-05T13:19:57.223Z,3645
2018-06-05T13:21:06.254Z,3875
2018-06-05T13:22:15.132Z,3790
2018-06-05T13:23:24.009Z,3730
2018-06-05T13:24:32.890Z,3840
2018-06-05T13:25:42.046Z,3945
2018-06-05T13:26:50.924Z,3910
2018-06-05T13:28:00.081Z,3680
2018-06-05T13:29:08.962Z,3775
2018-06-05T13:30:17.842Z,3835
2018-06-05T13:31:26.751Z,3870
2018-06-05T13:32:35.655Z,3625
2018-06-05T13:33:44.536Z,3655
2018-06-05T13:34:53.417Z,3755
2018-06-05T13:36:02.300Z,3780
2018-06-05T13:37:11.182Z,3870
2018-06-05T13:38:20.216Z,3985
2018-06-05T13:39:29.096Z,3825
2018-06-05T13:40:38.260Z,3775
2018-06-05T13:41:47.471Z,3810
2018-06-05T13:42:56.310Z,3905
2018-06-05T13:44:06.011Z,3860
2018-06-05T13:45:14.808Z,3645
2018-06-05T13:46:23.687Z,3820
2018-06-05T13:47:32.847Z,3920
2018-06-05T13:48:41.728Z,3875
2018-06-05T13:49:50.659Z,3940
2018-06-05T13:50:59.540Z,3785
2018-06-05T13:52:08.421Z,3770
2018-06-05T13:53:17.302Z,3935
2018-06-05T13:54:26.491Z,3990
2018-06-05T13:55:35.372Z,4015
2018-06-05T13:56:44.253Z,3885
2018-06-05T13:57:53.137Z,3580
2018-06-05T13:59:02.292Z,3600
2018-06-05T14:00:11.175Z,3825
2018-06-05T14:01:20.211Z,4215
2018-06-05T14:02:29.091Z,4265
2018-06-05T14:03:38.252Z,3860
2018-06-05T14:04:47.136Z,3575
2018-06-05T14:05:56.017Z,3725
2018-06-05T14:07:05.234Z,3710
2018-06-05T14:08:14.395Z,3815
2018-06-05T14:09:23.735Z,3710
2018-06-05T14:10:32.608Z,3795
2018-06-05T14:11:41.493Z,3970
2018-06-05T14:12:50.422Z,3685
2018-06-05T14:13:59.306Z,3655
2018-06-05T14:15:08.472Z,3575
2018-06-05T14:16:17.352Z,3250
2018-06-05T14:17:26.237Z,2990
2018-06-05T14:18:35.122Z,3580
2018-06-05T14:19:44.289Z,3840
2018-06-05T14:20:53.621Z,3690
2018-06-05T14:22:02.399Z,3715
2018-06-05T14:23:11.285Z,3850
2018-06-05T14:24:20.628Z,3755
2018-06-05T14:25:29.787Z,3400
2018-06-05T14:26:38.668Z,3845
2018-06-05T14:27:47.550Z,3750
2018-06-05T14:28:56.475Z,3740
2018-06-05T14:30:05.322Z,3825
2018-06-05T14:31:14.201Z,3530
2018-06-05T14:32:23.081Z,2600
2018-06-05T14:33:31.965Z,2565
2018-06-05T14:34:40.848Z,3305
2018-06-05T14:35:50.014Z,3605
2018-06-05T14:36:59.174Z,3710
2018-06-05T14:38:08.333Z,3495
2018-06-05T14:39:17.217Z,3445
2018-06-05T14:40:26.101Z,3590
2018-06-05T14:41:35.258Z,3870
2018-06-05T14:42:44.142Z,3685
2018-06-05T14:43:53.025Z,3560
2018-06-05T14:45:02.711Z,3180
2018-06-05T14:46:11.937Z,3185
2018-06-05T14:47:20.825Z,3430
2018-06-05T14:48:29.707Z,3330
2018-06-05T14:49:38.872Z,3385
2018-06-05T14:50:47.758Z,3325
2018-06-05T14:51:57.117Z,3170
2018-06-05T14:53:06.001Z,3315
2018-06-05T14:54:14.885Z,3460
2018-06-05T14:55:23.769Z,3550
2018-06-05T14:56:32.658Z,3285
2018-06-05T14:57:41.872Z,3325
2018-06-05T14:58:50.756Z,3280
2018-06-05T14:59:59.914Z,3090
2018-06-05T15:01:08.813Z,2380
2018-06-05T15:02:17.695Z,2390
2018-06-05T15:03:26.576Z,2810
2018-06-05T15:04:35.554Z,3090
2018-06-05T15:05:44.439Z,3305
2018-06-05T15:06:53.323Z,3435
2018-06-05T15:08:02.205Z,3455
2018-06-05T15:09:11.088Z,3020
2018-06-05T15:10:19.981Z,2560
2018-06-05T15:11:28.874Z,2925
2018-06-05T15:12:38.209Z,3225
2018-06-05T15:13:47.103Z,3155
2018-06-05T15:14:56.276Z,3135
2018-06-05T15:16:05.158Z,3120
2018-06-05T15:17:14.041Z,3160
2018-06-05T15:18:22.972Z,3260
2018-06-05T15:19:31.855Z,3085
2018-06-05T15:20:40.737Z,3095
2018-06-05T15:21:49.687Z,3000
2018-06-05T15:22:58.568Z,2730
2018-06-05T15:24:07.452Z,2740
2018-06-05T15:25:16.337Z,2580
2018-06-05T15:26:25.612Z,2775
2018-06-05T15:27:34.714Z,3040
2018-06-05T15:28:43.601Z,2975
2018-06-05T15:29:52.761Z,2940
2018-06-05T15:31:01.925Z,2940
2018-06-05T15:32:10.802Z,2665
2018-06-05T15:33:19.962Z,2705
2018-06-05T15:34:29.118Z,2810
2018-06-05T15:35:38.278Z,2805
2018-06-05T15:36:47.160Z,2730
2018-06-05T15:37:56.040Z,2630
2018-06-05T15:39:04.924Z,2810
2018-06-05T15:40:14.079Z,2830
2018-06-05T15:41:22.966Z,2695
2018-06-05T15:42:32.131Z,2730
2018-06-05T15:43:41.077Z,2840
2018-06-05T15:44:49.903Z,2905
2018-06-05T15:45:58.786Z,2670
2018-06-05T15:47:07.674Z,2590
2018-06-05T15:48:16.556Z,2840
2018-06-05T15:49:25.792Z,2765
2018-06-05T15:50:35.116Z,2735
2018-06-05T15:51:44.214Z,2675
2018-06-05T15:52:53.098Z,2620
2018-06-05T15:54:02.264Z,2585
2018-06-05T15:55:11.295Z,2585
2018-06-05T15:56:20.176Z,2645
2018-06-05T15:57:29.062Z,2630
2018-06-05T15:58:38.504Z,2645
2018-06-05T15:59:47.667Z,2650